Latest Coastal Weather Observations for Derby

IDW60701

Issued at 1:33 am WST Thursday 3 September 2026 (issued every 10 minutes, with the page automatically refreshed every 10 minutes)

About coastal observations | Map of coastal stations | Coastal observations for WA | Marine services | Other Formats
Station Details ID: 003032 Name: DERBY AERO Lat: -17.37 Lon: 123.66 Height: 6.2 m
Data from the previous 72 hours. | See also: Recent months at Derby
Date/Time
WST
Wind Sea
Height
m
Swell Vis
km
Cloud Weather Temp
°C
Press
MSL
hPa
Rain since
9am
mm
Dir  Spd
kts
Gust
kts
Height
m
Period
s
Dir
03/01:30am NNE 5 9 - - - - - - - 21.4 1015.7 -
03/01:00am ESE 6 11 - - - - - - - 20.9 1015.5 -
03/12:30am SSE 8 10 - - - - - - - 21.2 1015.2 -
03/12:00am S 6 9 - - - - - - - 21.2 1015.4 -
 
Date/Time
WST
Wind Sea
Height
m
Swell Vis
km
Cloud Weather Temp
°C
Press
MSL
hPa
Rain since
9am
mm
Dir  Spd
kts
Gust
kts
Height
m
Period
s
Dir
02/11:30pm S 6 7 - - - - - - - 21.9 1015.5 -
02/11:00pm WSW 5 7 - - - - - - - 23.0 1015.4 -
02/10:30pm WSW 6 7 - - - - - - - 23.4 1015.6 -
02/10:00pm WSW 6 8 - - - - - - - 23.7 1016.0 -
02/09:30pm WSW 7 9 - - - - - - - 24.3 1016.1 -
02/09:00pm W 5 7 - - - - - - - 24.2 1016.0 0.0
02/08:30pm W 8 10 - - - - - - - 25.2 1015.9 -
02/08:00pm W 10 15 - - - - - - - 26.4 1015.7 -
02/07:30pm NW 11 13 - - - - - - - 26.5 1015.2 -
02/07:00pm NNW 10 12 - - - - - - - 26.9 1014.8 -
02/06:30pm NNW 11 15 - - - - - - - 27.1 1014.5 -
02/06:00pm NNW 14 18 - - - - - - - 27.6 1014.0 -
02/05:30pm NNW 15 19 - - - - - - - 28.3 1013.8 -
02/05:00pm NNW 17 20 - - - - - - - 29.3 1013.5 -
02/04:30pm NW 17 21 - - - - - - - 30.4 1013.3 -
02/04:00pm NW 15 18 - - - - - - - 31.4 1013.1 -
02/03:30pm NW 15 19 - - - - - - - 32.7 1013.1 -
02/03:00pm NW 14 17 - - - - - - - 33.2 1013.0 -
02/02:30pm NW 15 18 - - - - - - - 33.2 1013.3 -
02/02:00pm NW 15 18 - - - - - - - 33.2 1013.6 -
02/01:30pm NW 15 18 - - - - - - - 33.6 1014.1 -
02/01:00pm NW 15 19 - - - - - - - 33.9 1014.6 -
02/12:30pm NW 16 19 - - - - - - - 33.6 1015.0 -
02/12:00pm NNW 14 18 - - - - - - - 33.2 1015.6 -
02/11:30am NW 12 18 - - - - - - - 33.1 1016.0 -
02/11:00am NNW 11 15 - - - - - - - 33.0 1016.6 -
02/10:30am N 9 12 - - - - - - - 32.5 1017.0 -
02/10:00am NNW 5 9 - - - - - - - 31.9 1017.5 -
02/09:30am NW 4 6 - - - - - - - 30.3 1017.7 -
02/09:00am NNW 3 5 - - - - - - - 29.3 1017.9 0.0
02/08:30am NW 5 7 - - - - - - - 27.7 1017.9 0.0
02/08:00am NNW 5 7 - - - - - - - 26.2 1017.8 0.0
02/07:30am N 5 6 - - - - - - - 24.1 1017.6 0.0
02/07:00am NNE 3 4 - - - - - - - 22.5 1017.6 0.0
02/06:30am NNE 5 6 - - - - - - - 21.1 1017.1 0.0
02/06:00am NNE 5 6 - - - - - - - 20.5 1016.9 0.0
02/05:30am NNE 4 5 - - - - - - - 20.0 1016.6 0.0
02/05:00am NE 5 6 - - - - - - - 20.1 1016.3 0.0
02/04:30am NNE 6 7 - - - - - - - 19.8 1015.9 0.0
02/04:00am NE 4 6 - - - - - - - 19.9 1015.7 0.0
02/03:30am NE 5 6 - - - - - - - 20.0 1015.7 0.0
02/03:00am NNE 6 8 - - - - - - - 20.2 1015.5 0.0
02/02:30am NNE 6 8 - - - - - - - 20.0 1015.4 0.0
02/02:00am NE 5 6 - - - - - - - 20.4 1015.3 0.0
02/01:30am NE 5 7 - - - - - - - 20.4 1015.5 0.0
02/01:00am N 5 7 - - - - - - - 20.6 1015.7 0.0
02/12:30am NE 5 7 - - - - - - - 20.7 1015.8 0.0
02/12:00am NE 4 6 - - - - - - - 21.4 1015.9 0.0
 
Date/Time
WST
Wind Sea
Height
m
Swell Vis
km
Cloud Weather Temp
°C
Press
MSL
hPa
Rain since
9am
mm
Dir  Spd
kts
Gust
kts
Height
m
Period
s
Dir
01/11:30pm ENE 5 6 - - - - - - - 21.5 1016.2 0.0
01/11:00pm CALM 0 0 - - - - - - - 22.0 1016.1 0.0
01/10:30pm WNW 2 5 - - - - - - - 21.4 1016.0 0.0
01/10:00pm NW 4 6 - - - - - - - 24.0 1016.0 0.0
01/09:30pm N 4 8 - - - - - - - 23.4 1015.9 0.0
01/09:00pm NNW 4 5 - - - - - - - 23.7 1016.0 0.0
01/08:30pm NNW 4 5 - - - - - - - 24.2 1015.8 0.0
01/08:00pm NNW 5 6 - - - - - - - 24.9 1015.6 0.0
01/07:30pm N 6 7 - - - - - - - 25.3 1015.2 0.0
01/07:00pm N 7 10 - - - - - - - 26.3 1014.8 0.0
01/06:30pm NNW 10 15 - - - - - - - 26.7 1014.3 0.0
01/06:00pm NNW 13 16 - - - - - - - 26.9 1014.1 0.0
01/05:30pm NNW 14 18 - - - - - - - 27.7 1013.7 0.0
01/05:00pm NNW 17 20 - - - - - - - 28.6 1013.5 0.0
01/04:30pm NNW 16 19 - - - - - - - 29.5 1013.3 0.0
01/04:00pm NW 17 21 - - - - - - - 30.8 1013.0 0.0
01/03:47pm NW 17 24 - - - - - - - 31.2 1012.8 0.0
01/03:30pm NW 15 19 - - - - - - - 34.7 1012.6 0.0
01/03:00pm WNW 14 18 - - - - - - - 35.2 1012.6 0.0
01/02:30pm SSW 5 10 - - - - - - - 36.6 1012.9 0.0
01/02:00pm SE 10 16 - - - - - - - 37.3 1013.3 0.0
01/01:30pm ESE 10 21 - - - - - - - 37.4 1013.7 0.0
01/01:00pm E 11 19 - - - - - - - 37.6 1014.3 0.0
01/12:30pm ESE 12 19 - - - - - - - 36.4 1014.8 0.0
01/12:00pm ENE 11 18 - - - - - - - 36.0 1015.2 0.0
01/11:30am ENE 11 20 - - - - - - - 35.5 1015.8 0.0
01/11:00am E 12 19 - - - - - - - 35.3 1016.2 0.0
01/10:30am NE 11 17 - - - - - - - 35.2 1016.8 0.0
01/10:00am NE 9 15 - - - - - - - 34.3 1017.1 0.0
01/09:30am ENE 8 13 - - - - - - - 32.7 1017.5 0.0
01/09:00am ENE 6 10 - - - - - - - 30.8 1017.7 0.0
01/08:30am E 6 8 - - - - - - - 28.8 1017.7 0.0
01/08:00am ESE 7 8 - - - - - - - 26.1 1017.7 0.0
01/07:30am ENE 4 5 - - - - - - - 23.1 1017.8 0.0
01/07:00am E 4 5 - - - - - - - 21.0 1017.6 0.0
01/06:30am ESE 4 6 - - - - - - - 19.5 1017.4 0.0
01/06:00am SSE 7 9 - - - - - - - 18.9 1016.9 0.0
01/05:30am SSE 7 8 - - - - - - - 18.7 1016.6 0.0
01/05:00am SSE 6 7 - - - - - - - 19.2 1016.3 0.0
01/04:30am SSE 7 8 - - - - - - - 19.6 1016.2 0.0
01/04:00am SSE 6 7 - - - - - - - 19.5 1016.1 0.0
01/03:30am SSE 6 7 - - - - - - - 19.9 1016.0 0.0
01/03:00am SSE 6 7 - - - - - - - 20.5 1016.0 0.0
01/02:30am SSE 6 7 - - - - - - - 20.4 1016.1 0.0
01/02:00am SSE 7 8 - - - - - - - 21.3 1016.2 0.0
01/01:30am SSE 7 8 - - - - - - - 21.1 1016.2 0.0
01/01:00am SSE 6 7 - - - - - - - 21.5 1016.2 0.0
01/12:30am SSE 3 6 - - - - - - - 22.4 1016.5 0.0
01/12:00am SSE 4 5 - - - - - - - 21.6 1016.8 0.0
 
Date/Time
WST
Wind Sea
Height
m
Swell Vis
km
Cloud Weather Temp
°C
Press
MSL
hPa
Rain since
9am
mm
Dir  Spd
kts
Gust
kts
Height
m
Period
s
Dir
31/11:30pm S 4 5 - - - - - - - 22.5 1017.0 0.0
31/11:00pm SSW 5 6 - - - - - - - 23.0 1017.2 0.0
31/10:30pm SW 3 3 - - - - - - - 22.2 1017.1 0.0
31/10:00pm CALM 0 0 - - - - - - - 23.7 1017.2 0.0
31/09:30pm WSW 4 5 - - - - - - - 25.2 1016.9 0.0
31/09:00pm WNW 5 6 - - - - - - - 24.7 1016.9 0.0
31/08:30pm NW 5 8 - - - - - - - 24.9 1016.8 0.0
31/08:00pm NW 7 9 - - - - - - - 26.2 1016.5 0.0
31/07:30pm NNW 8 10 - - - - - - - 26.8 1016.3 0.0
31/07:00pm N 6 8 - - - - - - - 26.8 1015.8 0.0
31/06:30pm N 6 9 - - - - - - - 27.9 1015.2 0.0
31/06:00pm W 7 9 - - - - - - - 28.3 1014.7 0.0
31/05:30pm WNW 8 10 - - - - - - - 30.2 1014.5 0.0
31/05:00pm WNW 10 13 - - - - - - - 31.8 1014.4 0.0
31/04:30pm WNW 11 13 - - - - - - - 33.1 1014.3 0.0
31/04:00pm WNW 13 16 - - - - - - - 33.6 1014.2 0.0
31/03:30pm WNW 13 16 - - - - - - - 33.8 1014.2 0.0
31/03:00pm NW 13 16 - - - - - - - 33.8 1014.1 0.0
31/02:30pm NW 13 16 - - - - - - - 33.4 1014.3 0.0
31/02:00pm NW 16 20 - - - - - - - 33.9 1014.4 0.0
31/01:30pm NNW 11 19 - - - - - - - 35.1 1014.8 0.0
31/01:00pm NNE 9 14 - - - - - - - 35.4 1015.3 0.0
31/12:30pm NNE 11 16 - - - - - - - 35.4 1015.7 0.0
31/12:00pm NNE 11 15 - - - - - - - 34.7 1016.1 0.0
31/11:30am ENE 9 19 - - - - - - - 35.2 1016.6 0.0
31/11:00am NE 10 15 - - - - - - - 34.0 1017.1 0.0
31/10:30am E 8 13 - - - - - - - 33.0 1017.5 0.0
31/10:00am ENE 6 10 - - - - - - - 32.1 1017.9 0.0
31/09:30am ESE 8 13 - - - - - - - 31.0 1018.3 0.0
31/09:00am SE 6 9 - - - - - - - 30.0 1018.3 0.0
31/08:30am S 8 10 - - - - - - - 27.2 1018.2 0.0
31/08:00am S 9 13 - - - - - - - 25.9 1018.2 0.0
31/07:30am SSW 7 9 - - - - - - - 23.6 1018.0 0.0
31/07:00am SSW 7 8 - - - - - - - 21.5 1017.9 0.0
31/06:30am SW 7 7 - - - - - - - 19.3 1017.6 0.0
31/06:00am WSW 6 7 - - - - - - - 17.9 1017.4 0.0
31/05:30am WSW 3 4 - - - - - - - 17.5 1017.3 0.0
31/05:00am W 4 5 - - - - - - - 17.0 1016.9 0.0
31/04:30am WSW 3 4 - - - - - - - 17.4 1016.6 0.0
31/04:00am WNW 4 4 - - - - - - - 16.9 1016.4 0.0
31/03:30am CALM 0 0 - - - - - - - 17.0 1016.3 0.0
31/03:00am SE 2 3 - - - - - - - 19.0 1016.2 0.0
31/02:30am SSE 4 5 - - - - - - - 20.7 1016.1 0.0
31/02:00am SSE 6 7 - - - - - - - 21.1 1016.2 0.0

Other formats

Comma delimited format used in spreadsheet applications
http://www.bom.gov.au/fwo/IDW60701/IDW60701.95205.axf

JavaScript Object Notation format (JSON) in row-major order
http://www.bom.gov.au/fwo/IDW60701/IDW60701.95205.json

Data quality

Most of these data are generated automatically and are frequently updated. Quality checks on data are not normally performed. It is possible for incorrect values to appear. Refer to information at About Latest Weather Observations and please check the disclaimer before using these data.